sensor_id;sensor_type;location;lat;lon;timestamp;pressure;altitude;pressure_sealevel;temperature;humidity
68193;BME280;55012;47.562;18.414;2022-10-19T00:00:26;100052.31;;;10.48;100.00
68193;BME280;55012;47.562;18.414;2022-10-19T00:02:52;100005.31;;;10.61;100.00
68193;BME280;55012;47.562;18.414;2022-10-19T00:05:17;99926.13;;;10.73;100.00
68193;BME280;55012;47.562;18.414;2022-10-19T00:07:43;99876.72;;;10.85;100.00
68193;BME280;55012;47.562;18.414;2022-10-19T00:10:08;99801.16;;;10.92;100.00
68193;BME280;55012;47.562;18.414;2022-10-19T00:12:34;99763.84;;;10.97;100.00
68193;BME280;55012;47.562;18.414;2022-10-19T00:15:00;99722.25;;;11.02;100.00
68193;BME280;55012;47.562;18.414;2022-10-19T00:17:26;99688.28;;;11.05;100.00
68193;BME280;55012;47.562;18.414;2022-10-19T00:19:51;99649.38;;;11.09;100.00
68193;BME280;55012;47.562;18.414;2022-10-19T00:22:16;99592.28;;;11.14;100.00
68193;BME280;55012;47.562;18.414;2022-10-19T00:24:42;99562.28;;;11.19;100.00
68193;BME280;55012;47.562;18.414;2022-10-19T00:27:08;99533.50;;;11.27;100.00
68193;BME280;55012;47.562;18.414;2022-10-19T00:29:34;99492.88;;;11.27;100.00
68193;BME280;55012;47.562;18.414;2022-10-19T00:32:00;99491.63;;;11.24;100.00
68193;BME280;55012;47.562;18.414;2022-10-19T00:34:25;99491.75;;;11.16;100.00
68193;BME280;55012;47.562;18.414;2022-10-19T00:36:51;99507.69;;;11.05;100.00
68193;BME280;55012;47.562;18.414;2022-10-19T00:39:17;99527.69;;;11.01;100.00
68193;BME280;55012;47.562;18.414;2022-10-19T00:41:45;99543.34;;;10.95;100.00
68193;BME280;55012;47.562;18.414;2022-10-19T00:46:46;99607.97;;;10.84;100.00
68193;BME280;55012;47.562;18.414;2022-10-19T00:49:26;99617.44;;;10.78;100.00
68193;BME280;55012;47.562;18.414;2022-10-19T00:51:55;99615.63;;;10.70;100.00
68193;BME280;55012;47.562;18.414;2022-10-19T00:54:22;99595.41;;;10.43;100.00
68193;BME280;55012;47.562;18.414;2022-10-19T00:56:50;99627.41;;;10.20;100.00
68193;BME280;55012;47.562;18.414;2022-10-19T00:59:19;99734.41;;;10.00;100.00
68193;BME280;55012;47.562;18.414;2022-10-19T01:01:45;99907.84;;;9.64;100.00
68193;BME280;55012;47.562;18.414;2022-10-19T01:04:12;100156.31;;;9.38;100.00
68193;BME280;55012;47.562;18.414;2022-10-19T01:06:39;100254.88;;;9.18;100.00
68193;BME280;55012;47.562;18.414;2022-10-19T01:09:05;100325.84;;;9.10;100.00
68193;BME280;55012;47.562;18.414;2022-10-19T01:14:25;100390.16;;;9.17;100.00
68193;BME280;55012;47.562;18.414;2022-10-19T01:17:14;100393.72;;;9.26;100.00
68193;BME280;55012;47.562;18.414;2022-10-19T01:22:31;100412.88;;;9.38;100.00
68193;BME280;55012;47.562;18.414;2022-10-19T01:31:42;100434.59;;;9.33;100.00
68193;BME280;55012;47.562;18.414;2022-10-19T01:34:04;100442.94;;;9.23;100.00
68193;BME280;55012;47.562;18.414;2022-10-19T01:39:12;100476.84;;;8.79;100.00
68193;BME280;55012;47.562;18.414;2022-10-19T01:41:49;100488.84;;;8.59;100.00
68193;BME280;55012;47.562;18.414;2022-10-19T01:44:33;100523.94;;;8.46;100.00
68193;BME280;55012;47.562;18.414;2022-10-19T01:47:04;100542.09;;;8.40;100.00
68193;BME280;55012;47.562;18.414;2022-10-19T01:52:08;100511.13;;;8.65;100.00
68193;BME280;55012;47.562;18.414;2022-10-19T01:54:39;100495.44;;;8.81;100.00
68193;BME280;55012;47.562;18.414;2022-10-19T01:57:08;100491.00;;;8.98;100.00
68193;BME280;55012;47.562;18.414;2022-10-19T01:59:36;100476.56;;;9.17;100.00
68193;BME280;55012;47.562;18.414;2022-10-19T02:02:03;100472.41;;;9.33;100.00
68193;BME280;55012;47.562;18.414;2022-10-19T02:04:30;100474.44;;;9.50;100.00
68193;BME280;55012;47.562;18.414;2022-10-19T02:06:58;100467.97;;;9.60;100.00
68193;BME280;55012;47.562;18.414;2022-10-19T02:09:23;100470.75;;;9.68;100.00
68193;BME280;55012;47.562;18.414;2022-10-19T02:11:56;100480.19;;;9.79;100.00
68193;BME280;55012;47.562;18.414;2022-10-19T02:14:26;100484.97;;;9.82;100.00
68193;BME280;55012;47.562;18.414;2022-10-19T02:17:12;100489.47;;;9.87;100.00
68193;BME280;55012;47.562;18.414;2022-10-19T02:19:38;100492.53;;;9.94;100.00
68193;BME280;55012;47.562;18.414;2022-10-19T02:22:04;100486.66;;;10.01;100.00
68193;BME280;55012;47.562;18.414;2022-10-19T02:24:30;100482.91;;;10.10;100.00
68193;BME280;55012;47.562;18.414;2022-10-19T02:26:56;100480.53;;;10.18;100.00
68193;BME280;55012;47.562;18.414;2022-10-19T02:29:22;100469.44;;;10.19;100.00
68193;BME280;55012;47.562;18.414;2022-10-19T02:31:48;100450.50;;;10.19;100.00
68193;BME280;55012;47.562;18.414;2022-10-19T02:34:13;100459.38;;;10.11;100.00
68193;BME280;55012;47.562;18.414;2022-10-19T02:36:39;100442.81;;;10.04;100.00
68193;BME280;55012;47.562;18.414;2022-10-19T02:39:06;100440.06;;;9.95;100.00
68193;BME280;55012;47.562;18.414;2022-10-19T02:41:47;100452.47;;;9.96;100.00
68193;BME280;55012;47.562;18.414;2022-10-19T02:44:25;100456.59;;;9.94;100.00
68193;BME280;55012;47.562;18.414;2022-10-19T02:47:09;100472.50;;;9.95;100.00
68193;BME280;55012;47.562;18.414;2022-10-19T02:49:37;100490.00;;;9.98;100.00
68193;BME280;55012;47.562;18.414;2022-10-19T02:52:07;100479.38;;;10.01;100.00
68193;BME280;55012;47.562;18.414;2022-10-19T02:54:34;100484.78;;;10.01;100.00
68193;BME280;55012;47.562;18.414;2022-10-19T02:56:59;100477.75;;;10.00;100.00
68193;BME280;55012;47.562;18.414;2022-10-19T02:59:25;100480.19;;;10.02;100.00
68193;BME280;55012;47.562;18.414;2022-10-19T03:01:51;100469.66;;;10.00;100.00
68193;BME280;55012;47.562;18.414;2022-10-19T03:04:17;100469.66;;;10.00;100.00
68193;BME280;55012;47.562;18.414;2022-10-19T03:06:43;100464.75;;;10.02;100.00
68193;BME280;55012;47.562;18.414;2022-10-19T03:09:08;100453.94;;;10.02;100.00
68193;BME280;55012;47.562;18.414;2022-10-19T03:11:34;100454.09;;;10.06;100.00
68193;BME280;55012;47.562;18.414;2022-10-19T03:14:00;100448.06;;;10.09;100.00
68193;BME280;55012;47.562;18.414;2022-10-19T03:16:25;100445.06;;;10.10;100.00
68193;BME280;55012;47.562;18.414;2022-10-19T03:18:51;100455.88;;;10.10;100.00
68193;BME280;55012;47.562;18.414;2022-10-19T03:21:17;100447.78;;;10.10;100.00
68193;BME280;55012;47.562;18.414;2022-10-19T03:23:43;100443.63;;;10.13;100.00
68193;BME280;55012;47.562;18.414;2022-10-19T03:26:12;100425.81;;;10.12;100.00
68193;BME280;55012;47.562;18.414;2022-10-19T03:28:38;100448.25;;;10.12;100.00
68193;BME280;55012;47.562;18.414;2022-10-19T03:31:04;100420.09;;;10.13;100.00
68193;BME280;55012;47.562;18.414;2022-10-19T03:33:30;100429.31;;;10.12;100.00
68193;BME280;55012;47.562;18.414;2022-10-19T03:36:21;100433.13;;;10.11;100.00
68193;BME280;55012;47.562;18.414;2022-10-19T03:38:58;100428.97;;;10.05;100.00
68193;BME280;55012;47.562;18.414;2022-10-19T03:41:25;100430.53;;;9.98;100.00
68193;BME280;55012;47.562;18.414;2022-10-19T03:43:51;100427.16;;;9.92;100.00
68193;BME280;55012;47.562;18.414;2022-10-19T03:46:17;100428.91;;;9.88;100.00
68193;BME280;55012;47.562;18.414;2022-10-19T03:48:43;100433.31;;;9.84;100.00
68193;BME280;55012;47.562;18.414;2022-10-19T03:51:19;100429.66;;;9.80;100.00
68193;BME280;55012;47.562;18.414;2022-10-19T03:53:46;100429.50;;;9.76;100.00
68193;BME280;55012;47.562;18.414;2022-10-19T03:56:14;100424.69;;;9.73;100.00
68193;BME280;55012;47.562;18.414;2022-10-19T03:58:40;100426.09;;;9.71;100.00
68193;BME280;55012;47.562;18.414;2022-10-19T04:01:09;100419.44;;;9.68;100.00
68193;BME280;55012;47.562;18.414;2022-10-19T04:03:35;100404.94;;;9.64;100.00
68193;BME280;55012;47.562;18.414;2022-10-19T04:06:03;100407.75;;;9.59;100.00
68193;BME280;55012;47.562;18.414;2022-10-19T04:08:30;100420.28;;;9.55;100.00
68193;BME280;55012;47.562;18.414;2022-10-19T04:11:07;100415.31;;;9.48;100.00
68193;BME280;55012;47.562;18.414;2022-10-19T04:13:34;100410.53;;;9.45;100.00
68193;BME280;55012;47.562;18.414;2022-10-19T04:16:00;100406.06;;;9.41;100.00
68193;BME280;55012;47.562;18.414;2022-10-19T04:18:26;100406.19;;;9.36;100.00
68193;BME280;55012;47.562;18.414;2022-10-19T04:20:59;100400.00;;;9.35;100.00
68193;BME280;55012;47.562;18.414;2022-10-19T04:23:29;100403.31;;;9.32;100.00
68193;BME280;55012;47.562;18.414;2022-10-19T04:26:04;100402.03;;;9.29;100.00
68193;BME280;55012;47.562;18.414;2022-10-19T04:28:30;100392.91;;;9.25;100.00
68193;BME280;55012;47.562;18.414;2022-10-19T04:30:56;100393.06;;;9.20;100.00
68193;BME280;55012;47.562;18.414;2022-10-19T04:33:21;100388.56;;;9.16;100.00
68193;BME280;55012;47.562;18.414;2022-10-19T04:35:47;100396.66;;;9.16;100.00
68193;BME280;55012;47.562;18.414;2022-10-19T04:38:12;100376.19;;;9.15;100.00
68193;BME280;55012;47.562;18.414;2022-10-19T04:40:38;100379.69;;;9.15;100.00
68193;BME280;55012;47.562;18.414;2022-10-19T04:43:04;100380.16;;;9.17;100.00
68193;BME280;55012;47.562;18.414;2022-10-19T04:45:30;100391.34;;;9.24;100.00
68193;BME280;55012;47.562;18.414;2022-10-19T04:47:56;100381.38;;;9.34;100.00
68193;BME280;55012;47.562;18.414;2022-10-19T04:50:22;100389.41;;;9.47;100.00
68193;BME280;55012;47.562;18.414;2022-10-19T04:52:48;100383.44;;;9.59;100.00
68193;BME280;55012;47.562;18.414;2022-10-19T04:55:13;100372.06;;;9.71;100.00
68193;BME280;55012;47.562;18.414;2022-10-19T04:57:39;100363.38;;;9.82;100.00
68193;BME280;55012;47.562;18.414;2022-10-19T05:00:05;100365.19;;;9.96;100.00
68193;BME280;55012;47.562;18.414;2022-10-19T05:02:31;100369.97;;;10.07;100.00
68193;BME280;55012;47.562;18.414;2022-10-19T05:04:56;100370.00;;;10.16;100.00
68193;BME280;55012;47.562;18.414;2022-10-19T05:07:21;100370.03;;;10.25;100.00
68193;BME280;55012;47.562;18.414;2022-10-19T05:09:47;100373.88;;;10.32;100.00
68193;BME280;55012;47.562;18.414;2022-10-19T05:12:12;100376.94;;;10.39;100.00
68193;BME280;55012;47.562;18.414;2022-10-19T05:14:38;100387.63;;;10.45;100.00
68193;BME280;55012;47.562;18.414;2022-10-19T05:17:03;100383.63;;;10.51;100.00
68193;BME280;55012;47.562;18.414;2022-10-19T05:19:29;100392.06;;;10.58;100.00
68193;BME280;55012;47.562;18.414;2022-10-19T05:21:54;100390.03;;;10.63;100.00
68193;BME280;55012;47.562;18.414;2022-10-19T05:24:20;100394.97;;;10.70;100.00
68193;BME280;55012;47.562;18.414;2022-10-19T05:26:45;100401.81;;;10.76;100.00
68193;BME280;55012;47.562;18.414;2022-10-19T05:29:12;100399.41;;;10.83;100.00
68193;BME280;55012;47.562;18.414;2022-10-19T05:31:38;100404.03;;;10.83;100.00
68193;BME280;55012;47.562;18.414;2022-10-19T05:34:04;100402.78;;;10.80;100.00
68193;BME280;55012;47.562;18.414;2022-10-19T05:36:38;100408.84;;;10.77;100.00
68193;BME280;55012;47.562;18.414;2022-10-19T05:39:07;100411.34;;;10.74;100.00
68193;BME280;55012;47.562;18.414;2022-10-19T05:41:33;100418.53;;;10.69;100.00
68193;BME280;55012;47.562;18.414;2022-10-19T05:44:00;100412.66;;;10.67;100.00
68193;BME280;55012;47.562;18.414;2022-10-19T05:46:27;100411.66;;;10.63;100.00
68193;BME280;55012;47.562;18.414;2022-10-19T05:48:58;100412.78;;;10.62;100.00
68193;BME280;55012;47.562;18.414;2022-10-19T05:51:25;100414.38;;;10.63;100.00
68193;BME280;55012;47.562;18.414;2022-10-19T05:53:52;100419.66;;;10.68;100.00
68193;BME280;55012;47.562;18.414;2022-10-19T05:56:24;100418.22;;;10.71;100.00
68193;BME280;55012;47.562;18.414;2022-10-19T05:58:50;100423.31;;;10.73;100.00
68193;BME280;55012;47.562;18.414;2022-10-19T06:01:16;100414.38;;;10.72;100.00
68193;BME280;55012;47.562;18.414;2022-10-19T06:03:46;100414.53;;;10.67;100.00
68193;BME280;55012;47.562;18.414;2022-10-19T06:06:11;100402.75;;;10.63;100.00
68193;BME280;55012;47.562;18.414;2022-10-19T06:08:37;100403.69;;;10.58;100.00
68193;BME280;55012;47.562;18.414;2022-10-19T06:11:14;100401.63;;;10.55;100.00
68193;BME280;55012;47.562;18.414;2022-10-19T06:13:41;100404.47;;;10.50;100.00
68193;BME280;55012;47.562;18.414;2022-10-19T06:16:08;100398.91;;;10.47;100.00
68193;BME280;55012;47.562;18.414;2022-10-19T06:18:34;100400.81;;;10.37;100.00
68193;BME280;55012;47.562;18.414;2022-10-19T06:21:02;100450.72;;;10.31;100.00
68193;BME280;55012;47.562;18.414;2022-10-19T06:23:28;100441.16;;;10.25;100.00
68193;BME280;55012;47.562;18.414;2022-10-19T06:25:53;100427.44;;;10.22;100.00
68193;BME280;55012;47.562;18.414;2022-10-19T06:28:19;100430.47;;;10.20;100.00
68193;BME280;55012;47.562;18.414;2022-10-19T06:30:44;100425.84;;;10.21;100.00
68193;BME280;55012;47.562;18.414;2022-10-19T06:33:10;100419.97;;;10.19;100.00
68193;BME280;55012;47.562;18.414;2022-10-19T06:35:35;100419.19;;;10.18;100.00
68193;BME280;55012;47.562;18.414;2022-10-19T06:38:01;100416.47;;;10.18;100.00
68193;BME280;55012;47.562;18.414;2022-10-19T06:40:26;100411.22;;;10.22;100.00
68193;BME280;55012;47.562;18.414;2022-10-19T06:42:54;100412.38;;;10.29;100.00
68193;BME280;55012;47.562;18.414;2022-10-19T06:45:19;100406.22;;;10.37;100.00
68193;BME280;55012;47.562;18.414;2022-10-19T06:47:45;100393.03;;;10.45;100.00
68193;BME280;55012;47.562;18.414;2022-10-19T06:50:11;100393.66;;;10.50;100.00
68193;BME280;55012;47.562;18.414;2022-10-19T06:52:36;100395.09;;;10.56;100.00
68193;BME280;55012;47.562;18.414;2022-10-19T06:55:03;100394.16;;;10.61;100.00
68193;BME280;55012;47.562;18.414;2022-10-19T06:57:28;100394.78;;;10.66;100.00
68193;BME280;55012;47.562;18.414;2022-10-19T06:59:54;100403.56;;;10.72;100.00
68193;BME280;55012;47.562;18.414;2022-10-19T07:02:20;100392.59;;;10.77;100.00
68193;BME280;55012;47.562;18.414;2022-10-19T07:04:45;100418.38;;;10.83;100.00
68193;BME280;55012;47.562;18.414;2022-10-19T07:07:11;100422.38;;;10.86;100.00
68193;BME280;55012;47.562;18.414;2022-10-19T07:09:36;100393.06;;;10.88;100.00
68193;BME280;55012;47.562;18.414;2022-10-19T07:12:02;100388.75;;;10.95;100.00
68193;BME280;55012;47.562;18.414;2022-10-19T07:14:27;100392.75;;;10.98;100.00
68193;BME280;55012;47.562;18.414;2022-10-19T07:16:53;100394.50;;;11.03;100.00
68193;BME280;55012;47.562;18.414;2022-10-19T07:19:20;100396.22;;;11.07;100.00
68193;BME280;55012;47.562;18.414;2022-10-19T07:21:49;100396.41;;;11.11;100.00
68193;BME280;55012;47.562;18.414;2022-10-19T07:24:14;100390.03;;;11.15;100.00
68193;BME280;55012;47.562;18.414;2022-10-19T07:26:40;100386.69;;;11.18;100.00
68193;BME280;55012;47.562;18.414;2022-10-19T07:29:05;100386.50;;;11.23;100.00
68193;BME280;55012;47.562;18.414;2022-10-19T07:31:31;100392.56;;;11.29;100.00
68193;BME280;55012;47.562;18.414;2022-10-19T07:33:59;100391.91;;;11.32;100.00
68193;BME280;55012;47.562;18.414;2022-10-19T07:36:25;100400.22;;;11.36;100.00
68193;BME280;55012;47.562;18.414;2022-10-19T07:38:51;100388.38;;;11.40;100.00
68193;BME280;55012;47.562;18.414;2022-10-19T07:41:20;100398.75;;;11.47;100.00
68193;BME280;55012;47.562;18.414;2022-10-19T07:43:47;100402.88;;;11.53;100.00
68193;BME280;55012;47.562;18.414;2022-10-19T07:46:15;100395.06;;;11.60;100.00
68193;BME280;55012;47.562;18.414;2022-10-19T07:48:41;100401.25;;;11.69;100.00
68193;BME280;55012;47.562;18.414;2022-10-19T07:51:09;100401.22;;;11.78;100.00
68193;BME280;55012;47.562;18.414;2022-10-19T07:53:35;100399.47;;;11.82;100.00
68193;BME280;55012;47.562;18.414;2022-10-19T07:56:05;100400.88;;;11.88;100.00
68193;BME280;55012;47.562;18.414;2022-10-19T07:58:31;100403.09;;;11.95;100.00
68193;BME280;55012;47.562;18.414;2022-10-19T08:01:02;100407.22;;;12.01;100.00
68193;BME280;55012;47.562;18.414;2022-10-19T08:03:27;100400.19;;;12.08;100.00
68193;BME280;55012;47.562;18.414;2022-10-19T08:05:53;100398.22;;;12.18;100.00
68193;BME280;55012;47.562;18.414;2022-10-19T08:08:18;100409.81;;;12.27;100.00
68193;BME280;55012;47.562;18.414;2022-10-19T08:10:44;100404.69;;;12.34;100.00
68193;BME280;55012;47.562;18.414;2022-10-19T08:13:09;100404.13;;;12.41;100.00
68193;BME280;55012;47.562;18.414;2022-10-19T08:15:35;100413.69;;;12.47;100.00
68193;BME280;55012;47.562;18.414;2022-10-19T08:18:00;100417.81;;;12.53;100.00
68193;BME280;55012;47.562;18.414;2022-10-19T08:20:26;100413.13;;;12.62;100.00
68193;BME280;55012;47.562;18.414;2022-10-19T08:22:52;100426.97;;;12.69;100.00
68193;BME280;55012;47.562;18.414;2022-10-19T08:25:18;100432.47;;;12.81;100.00
68193;BME280;55012;47.562;18.414;2022-10-19T08:27:44;100461.63;;;12.93;100.00
68193;BME280;55012;47.562;18.414;2022-10-19T08:30:10;100461.34;;;13.07;100.00
68193;BME280;55012;47.562;18.414;2022-10-19T08:32:35;100477.75;;;13.19;100.00
68193;BME280;55012;47.562;18.414;2022-10-19T08:35:01;100496.53;;;13.33;100.00
68193;BME280;55012;47.562;18.414;2022-10-19T08:37:26;100513.06;;;13.40;100.00
68193;BME280;55012;47.562;18.414;2022-10-19T08:39:52;100513.81;;;13.49;100.00
68193;BME280;55012;47.562;18.414;2022-10-19T08:42:23;100520.88;;;13.62;100.00
68193;BME280;55012;47.562;18.414;2022-10-19T08:45:34;100541.56;;;13.75;100.00
68193;BME280;55012;47.562;18.414;2022-10-19T08:48:04;100536.06;;;13.84;100.00
68193;BME280;55012;47.562;18.414;2022-10-19T08:50:38;100548.00;;;13.92;100.00
68193;BME280;55012;47.562;18.414;2022-10-19T08:53:09;100555.28;;;14.00;100.00
68193;BME280;55012;47.562;18.414;2022-10-19T09:01:33;100552.47;;;14.21;100.00
68193;BME280;55012;47.562;18.414;2022-10-19T09:04:09;100558.63;;;14.30;100.00
68193;BME280;55012;47.562;18.414;2022-10-19T09:06:47;100590.41;;;14.38;100.00
68193;BME280;55012;47.562;18.414;2022-10-19T09:09:14;100588.94;;;14.41;100.00
68193;BME280;55012;47.562;18.414;2022-10-19T09:11:46;100585.69;;;14.47;100.00
68193;BME280;55012;47.562;18.414;2022-10-19T09:16:42;100591.25;;;14.63;100.00
68193;BME280;55012;47.562;18.414;2022-10-19T09:19:17;100603.09;;;14.67;100.00
68193;BME280;55012;47.562;18.414;2022-10-19T09:21:49;100624.19;;;14.70;100.00
68193;BME280;55012;47.562;18.414;2022-10-19T09:27:01;100612.28;;;14.75;100.00
68193;BME280;55012;47.562;18.414;2022-10-19T09:31:58;100616.50;;;14.84;100.00
68193;BME280;55012;47.562;18.414;2022-10-19T09:34:32;100636.94;;;14.91;100.00
68193;BME280;55012;47.562;18.414;2022-10-19T09:36:59;100650.44;;;14.99;100.00
68193;BME280;55012;47.562;18.414;2022-10-19T09:39:26;100615.47;;;15.01;100.00
68193;BME280;55012;47.562;18.414;2022-10-19T09:41:57;100615.25;;;15.06;100.00
68193;BME280;55012;47.562;18.414;2022-10-19T09:44:24;100614.66;;;15.13;100.00
68193;BME280;55012;47.562;18.414;2022-10-19T09:50:39;100620.69;;;15.18;100.00
68193;BME280;55012;47.562;18.414;2022-10-19T09:52:41;100628.19;;;15.22;100.00
68193;BME280;55012;47.562;18.414;2022-10-19T09:57:48;100649.09;;;15.17;100.00
68193;BME280;55012;47.562;18.414;2022-10-19T10:00:19;100654.09;;;15.15;100.00
68193;BME280;55012;47.562;18.414;2022-10-19T10:02:53;100670.56;;;15.19;100.00
68193;BME280;55012;47.562;18.414;2022-10-19T10:05:44;100657.72;;;15.20;100.00
68193;BME280;55012;47.562;18.414;2022-10-19T10:08:16;100645.00;;;15.24;100.00
68193;BME280;55012;47.562;18.414;2022-10-19T10:10:47;100648.97;;;15.26;100.00
68193;BME280;55012;47.562;18.414;2022-10-19T10:13:18;100652.72;;;15.34;100.00
68193;BME280;55012;47.562;18.414;2022-10-19T10:15:48;100630.56;;;15.35;100.00
68193;BME280;55012;47.562;18.414;2022-10-19T10:18:16;100659.06;;;15.38;100.00
68193;BME280;55012;47.562;18.414;2022-10-19T10:23:30;100646.09;;;15.59;100.00
68193;BME280;55012;47.562;18.414;2022-10-19T10:25:59;100651.09;;;15.57;100.00
68193;BME280;55012;47.562;18.414;2022-10-19T10:28:26;100653.84;;;15.57;100.00
68193;BME280;55012;47.562;18.414;2022-10-19T10:31:01;100658.81;;;15.55;100.00
68193;BME280;55012;47.562;18.414;2022-10-19T10:33:29;100628.03;;;15.55;100.00
68193;BME280;55012;47.562;18.414;2022-10-19T10:36:00;100629.84;;;15.63;100.00
68193;BME280;55012;47.562;18.414;2022-10-19T10:38:30;100634.72;;;15.69;100.00
68193;BME280;55012;47.562;18.414;2022-10-19T10:41:09;100635.28;;;15.75;100.00
68193;BME280;55012;47.562;18.414;2022-10-19T10:43:38;100631.19;;;15.81;100.00
68193;BME280;55012;47.562;18.414;2022-10-19T10:46:15;100631.88;;;15.78;100.00
68193;BME280;55012;47.562;18.414;2022-10-19T10:48:52;100609.25;;;15.78;100.00
68193;BME280;55012;47.562;18.414;2022-10-19T10:54:17;100601.06;;;15.78;100.00
68193;BME280;55012;47.562;18.414;2022-10-19T10:56:44;100598.19;;;15.86;100.00
68193;BME280;55012;47.562;18.414;2022-10-19T10:59:30;100603.25;;;16.00;100.00
68193;BME280;55012;47.562;18.414;2022-10-19T11:02:03;100600.25;;;16.05;100.00
68193;BME280;55012;47.562;18.414;2022-10-19T11:04:40;100611.53;;;16.04;100.00
68193;BME280;55012;47.562;18.414;2022-10-19T11:07:26;100609.91;;;16.15;100.00
68193;BME280;55012;47.562;18.414;2022-10-19T11:09:58;100643.09;;;16.17;100.00
68193;BME280;55012;47.562;18.414;2022-10-19T11:12:35;100592.25;;;16.12;100.00
68193;BME280;55012;47.562;18.414;2022-10-19T11:15:12;100592.63;;;16.11;100.00
68193;BME280;55012;47.562;18.414;2022-10-19T11:17:52;100577.81;;;16.12;100.00
68193;BME280;55012;47.562;18.414;2022-10-19T11:20:21;100553.59;;;16.10;100.00
68193;BME280;55012;47.562;18.414;2022-10-19T11:23:05;100541.31;;;16.16;100.00
68193;BME280;55012;47.562;18.414;2022-10-19T11:28:27;100543.53;;;16.42;100.00
68193;BME280;55012;47.562;18.414;2022-10-19T11:31:09;100479.81;;;16.38;100.00
68193;BME280;55012;47.562;18.414;2022-10-19T11:33:50;100447.41;;;16.05;100.00
68193;BME280;55012;47.562;18.414;2022-10-19T11:44:29;100154.19;;;15.67;100.00
68193;BME280;55012;47.562;18.414;2022-10-19T11:50:08;100134.72;;;15.88;100.00
68193;BME280;55012;47.562;18.414;2022-10-19T11:52:54;100153.63;;;15.97;100.00
68193;BME280;55012;47.562;18.414;2022-10-19T11:58:18;100099.84;;;15.97;100.00
68193;BME280;55012;47.562;18.414;2022-10-19T12:00:58;100095.91;;;15.76;100.00
68193;BME280;55012;47.562;18.414;2022-10-19T12:04:22;100120.81;;;15.58;100.00
68193;BME280;55012;47.562;18.414;2022-10-19T12:14:39;100096.09;;;15.67;100.00
68193;BME280;55012;47.562;18.414;2022-10-19T12:17:35;100071.31;;;15.56;100.00
68193;BME280;55012;47.562;18.414;2022-10-19T12:20:02;100057.94;;;15.51;100.00
68193;BME280;55012;47.562;18.414;2022-10-19T12:22:29;100063.75;;;15.50;100.00
68193;BME280;55012;47.562;18.414;2022-10-19T12:24:58;100024.34;;;15.47;100.00
68193;BME280;55012;47.562;18.414;2022-10-19T12:27:35;100037.13;;;15.43;100.00
68193;BME280;55012;47.562;18.414;2022-10-19T12:30:16;99979.72;;;15.36;100.00
68193;BME280;55012;47.562;18.414;2022-10-19T12:46:09;100026.75;;;15.49;100.00
68193;BME280;55012;47.562;18.414;2022-10-19T12:48:38;99946.78;;;15.44;100.00
68193;BME280;55012;47.562;18.414;2022-10-19T12:51:06;99734.38;;;15.36;100.00
68193;BME280;55012;47.562;18.414;2022-10-19T12:53:38;99781.31;;;15.26;100.00
68193;BME280;55012;47.562;18.414;2022-10-19T12:58:56;99720.28;;;15.07;100.00
68193;BME280;55012;47.562;18.414;2022-10-19T13:04:20;99733.66;;;15.16;100.00
68193;BME280;55012;47.562;18.414;2022-10-19T13:07:02;99703.81;;;15.23;100.00
68193;BME280;55012;47.562;18.414;2022-10-19T13:09:34;99713.72;;;15.35;100.00
68193;BME280;55012;47.562;18.414;2022-10-19T13:14:41;99692.56;;;15.51;100.00
68193;BME280;55012;47.562;18.414;2022-10-19T13:17:08;99681.66;;;15.51;100.00
68193;BME280;55012;47.562;18.414;2022-10-19T13:19:34;99673.06;;;15.49;100.00
68193;BME280;55012;47.562;18.414;2022-10-19T13:24:34;99704.66;;;15.54;100.00
68193;BME280;55012;47.562;18.414;2022-10-19T13:34:47;99585.88;;;15.83;100.00
68193;BME280;55012;47.562;18.414;2022-10-19T13:37:15;99575.06;;;15.93;100.00
68193;BME280;55012;47.562;18.414;2022-10-19T13:39:42;99567.38;;;16.02;100.00
68193;BME280;55012;47.562;18.414;2022-10-19T13:42:25;99559.19;;;16.02;100.00
68193;BME280;55012;47.562;18.414;2022-10-19T13:44:52;99550.53;;;15.93;100.00
68193;BME280;55012;47.562;18.414;2022-10-19T13:55:50;99593.19;;;15.49;100.00
68193;BME280;55012;47.562;18.414;2022-10-19T14:06:35;99537.22;;;15.58;100.00
68193;BME280;55012;47.562;18.414;2022-10-19T14:11:46;99540.25;;;15.53;100.00
68193;BME280;55012;47.562;18.414;2022-10-19T14:14:27;99539.94;;;15.58;100.00
68193;BME280;55012;47.562;18.414;2022-10-19T14:16:58;99576.72;;;15.68;100.00
68193;BME280;55012;47.562;18.414;2022-10-19T14:19:32;99576.53;;;15.84;100.00
68193;BME280;55012;47.562;18.414;2022-10-19T14:22:29;99540.00;;;15.92;100.00
68193;BME280;55012;47.562;18.414;2022-10-19T14:27:39;99533.16;;;15.75;100.00
68193;BME280;55012;47.562;18.414;2022-10-19T14:30:05;99542.03;;;15.68;100.00
68193;BME280;55012;47.562;18.414;2022-10-19T14:32:32;99550.84;;;15.58;100.00
68193;BME280;55012;47.562;18.414;2022-10-19T14:35:21;99539.84;;;15.51;100.00
68193;BME280;55012;47.562;18.414;2022-10-19T14:37:48;99558.09;;;15.47;100.00
68193;BME280;55012;47.562;18.414;2022-10-19T14:40:22;99556.22;;;15.51;100.00
68193;BME280;55012;47.562;18.414;2022-10-19T14:42:48;99553.66;;;15.95;100.00
68193;BME280;55012;47.562;18.414;2022-10-19T14:45:23;99521.81;;;16.95;100.00
68193;BME280;55012;47.562;18.414;2022-10-19T14:47:52;99431.56;;;17.75;100.00